Terminal Aerodrome Forecast
Issued by NWS

Home | Current Version | Previous Version | Text Only | Print | Product List | Glossary On
Versions: 1 2 3 4 5 6 7 8 9 10 11 12 13 14 15 16 17 18 19 20 21 22 23 24 25 26 27 28 29 30 31 32 33
000
FTUS42 KFFC 230700 AAA
TAFFTY
TAF AMD
KFTY 230757Z 2308/2406 00000KT P6SM FEW015 BKN035
     FM230900 00000KT P6SM SCT006 BKN035
      TEMPO 2310/2314 BKN006
     FM231400 00000KT P6SM SCT025
     FM231700 26005KT P6SM VCSH SCT035 BKN050 PROB30 2319/2323 4SM
      -TSRA BR BKN035CB
     FM240000 00000KT P6SM SCT040 SCT080=

USA.gov is the U.S. government's official web portal to all federal, state and local government web resources and services.